sensor_id;sensor_type;location;lat;lon;timestamp;P1;durP1;ratioP1;P2;durP2;ratioP2
21281;SDS011;10800;53.096;18.328;2022-09-24T00:02:26;26.90;;;13.40;;
21281;SDS011;10800;53.096;18.328;2022-09-24T00:07:32;25.87;;;12.97;;
21281;SDS011;10800;53.096;18.328;2022-09-24T00:12:39;24.33;;;13.07;;
21281;SDS011;10800;53.096;18.328;2022-09-24T00:17:44;31.77;;;14.47;;
21281;SDS011;10800;53.096;18.328;2022-09-24T00:22:50;29.03;;;13.80;;
21281;SDS011;10800;53.096;18.328;2022-09-24T00:27:55;27.83;;;14.47;;
21281;SDS011;10800;53.096;18.328;2022-09-24T00:33:01;29.50;;;13.50;;
21281;SDS011;10800;53.096;18.328;2022-09-24T00:38:07;31.27;;;15.53;;
21281;SDS011;10800;53.096;18.328;2022-09-24T00:43:29;29.43;;;13.77;;
21281;SDS011;10800;53.096;18.328;2022-09-24T00:48:38;27.60;;;13.23;;
21281;SDS011;10800;53.096;18.328;2022-09-24T00:53:47;26.33;;;13.33;;
21281;SDS011;10800;53.096;18.328;2022-09-24T00:58:55;28.17;;;14.50;;
21281;SDS011;10800;53.096;18.328;2022-09-24T01:04:04;28.77;;;14.53;;
21281;SDS011;10800;53.096;18.328;2022-09-24T01:09:10;27.07;;;13.90;;
21281;SDS011;10800;53.096;18.328;2022-09-24T01:19:46;30.70;;;13.93;;
21281;SDS011;10800;53.096;18.328;2022-09-24T01:30:43;26.50;;;13.37;;
21281;SDS011;10800;53.096;18.328;2022-09-24T01:35:55;26.23;;;14.13;;
21281;SDS011;10800;53.096;18.328;2022-09-24T01:40:59;28.70;;;13.57;;
21281;SDS011;10800;53.096;18.328;2022-09-24T01:46:07;27.67;;;13.47;;
21281;SDS011;10800;53.096;18.328;2022-09-24T01:51:22;32.50;;;14.50;;
21281;SDS011;10800;53.096;18.328;2022-09-24T01:56:32;33.30;;;16.80;;
21281;SDS011;10800;53.096;18.328;2022-09-24T02:01:48;31.57;;;16.87;;
21281;SDS011;10800;53.096;18.328;2022-09-24T02:07:05;31.57;;;15.80;;
21281;SDS011;10800;53.096;18.328;2022-09-24T02:12:19;31.77;;;15.87;;
21281;SDS011;10800;53.096;18.328;2022-09-24T02:17:29;30.37;;;15.03;;
21281;SDS011;10800;53.096;18.328;2022-09-24T02:22:37;28.53;;;14.87;;
21281;SDS011;10800;53.096;18.328;2022-09-24T02:27:44;31.20;;;14.67;;
21281;SDS011;10800;53.096;18.328;2022-09-24T02:32:51;25.97;;;12.87;;
21281;SDS011;10800;53.096;18.328;2022-09-24T02:37:59;33.07;;;14.57;;
21281;SDS011;10800;53.096;18.328;2022-09-24T02:43:07;29.83;;;15.27;;
21281;SDS011;10800;53.096;18.328;2022-09-24T02:48:13;34.80;;;16.13;;
21281;SDS011;10800;53.096;18.328;2022-09-24T02:53:19;30.73;;;15.53;;
21281;SDS011;10800;53.096;18.328;2022-09-24T02:58:25;31.90;;;15.90;;
21281;SDS011;10800;53.096;18.328;2022-09-24T03:03:32;27.93;;;14.60;;
21281;SDS011;10800;53.096;18.328;2022-09-24T03:08:37;28.43;;;14.80;;
21281;SDS011;10800;53.096;18.328;2022-09-24T03:13:43;30.63;;;15.60;;
21281;SDS011;10800;53.096;18.328;2022-09-24T03:18:49;30.03;;;14.93;;
21281;SDS011;10800;53.096;18.328;2022-09-24T03:23:54;30.00;;;14.90;;
21281;SDS011;10800;53.096;18.328;2022-09-24T03:28:59;27.20;;;14.50;;
21281;SDS011;10800;53.096;18.328;2022-09-24T03:34:05;29.23;;;14.80;;
21281;SDS011;10800;53.096;18.328;2022-09-24T03:39:10;30.80;;;15.93;;
21281;SDS011;10800;53.096;18.328;2022-09-24T03:44:15;30.53;;;14.87;;
21281;SDS011;10800;53.096;18.328;2022-09-24T03:54:29;26.67;;;15.10;;
21281;SDS011;10800;53.096;18.328;2022-09-24T03:59:36;38.83;;;16.23;;
21281;SDS011;10800;53.096;18.328;2022-09-24T04:04:41;29.90;;;16.80;;
21281;SDS011;10800;53.096;18.328;2022-09-24T04:09:46;36.90;;;16.57;;
21281;SDS011;10800;53.096;18.328;2022-09-24T04:14:52;30.50;;;14.67;;
21281;SDS011;10800;53.096;18.328;2022-09-24T04:19:57;26.17;;;15.07;;
21281;SDS011;10800;53.096;18.328;2022-09-24T04:25:03;28.43;;;14.53;;
21281;SDS011;10800;53.096;18.328;2022-09-24T04:30:11;34.30;;;14.87;;
21281;SDS011;10800;53.096;18.328;2022-09-24T04:35:22;34.80;;;16.47;;
21281;SDS011;10800;53.096;18.328;2022-09-24T04:40:26;34.87;;;15.93;;
21281;SDS011;10800;53.096;18.328;2022-09-24T04:45:32;33.93;;;16.10;;
21281;SDS011;10800;53.096;18.328;2022-09-24T04:50:37;30.60;;;16.63;;
21281;SDS011;10800;53.096;18.328;2022-09-24T04:55:44;35.83;;;17.33;;
21281;SDS011;10800;53.096;18.328;2022-09-24T05:00:50;30.70;;;16.90;;
21281;SDS011;10800;53.096;18.328;2022-09-24T05:05:56;33.57;;;18.37;;
21281;SDS011;10800;53.096;18.328;2022-09-24T05:11:03;30.40;;;17.20;;
21281;SDS011;10800;53.096;18.328;2022-09-24T05:16:09;28.60;;;16.67;;
21281;SDS011;10800;53.096;18.328;2022-09-24T05:21:14;27.10;;;15.90;;
21281;SDS011;10800;53.096;18.328;2022-09-24T05:26:19;33.43;;;16.70;;
21281;SDS011;10800;53.096;18.328;2022-09-24T05:31:43;26.43;;;15.43;;
21281;SDS011;10800;53.096;18.328;2022-09-24T05:36:48;32.30;;;15.73;;
21281;SDS011;10800;53.096;18.328;2022-09-24T05:41:54;24.73;;;14.23;;
21281;SDS011;10800;53.096;18.328;2022-09-24T05:47:00;30.00;;;15.13;;
21281;SDS011;10800;53.096;18.328;2022-09-24T05:52:06;29.20;;;16.00;;
21281;SDS011;10800;53.096;18.328;2022-09-24T05:57:12;26.23;;;14.57;;
21281;SDS011;10800;53.096;18.328;2022-09-24T06:02:18;30.70;;;15.23;;
21281;SDS011;10800;53.096;18.328;2022-09-24T06:07:23;30.73;;;16.77;;
21281;SDS011;10800;53.096;18.328;2022-09-24T06:12:35;36.17;;;15.43;;
21281;SDS011;10800;53.096;18.328;2022-09-24T06:17:40;28.63;;;15.57;;
21281;SDS011;10800;53.096;18.328;2022-09-24T06:22:46;33.03;;;14.83;;
21281;SDS011;10800;53.096;18.328;2022-09-24T06:27:53;25.60;;;14.13;;
21281;SDS011;10800;53.096;18.328;2022-09-24T06:33:01;24.70;;;12.93;;
21281;SDS011;10800;53.096;18.328;2022-09-24T06:38:10;30.27;;;13.70;;
21281;SDS011;10800;53.096;18.328;2022-09-24T06:43:18;22.60;;;12.73;;
21281;SDS011;10800;53.096;18.328;2022-09-24T06:48:23;20.87;;;12.23;;
21281;SDS011;10800;53.096;18.328;2022-09-24T06:53:30;30.43;;;13.33;;
21281;SDS011;10800;53.096;18.328;2022-09-24T06:58:35;25.17;;;13.33;;
21281;SDS011;10800;53.096;18.328;2022-09-24T07:03:43;22.60;;;12.70;;
21281;SDS011;10800;53.096;18.328;2022-09-24T07:08:51;26.90;;;14.07;;
21281;SDS011;10800;53.096;18.328;2022-09-24T07:13:58;23.83;;;12.37;;
21281;SDS011;10800;53.096;18.328;2022-09-24T07:19:04;27.03;;;13.73;;
21281;SDS011;10800;53.096;18.328;2022-09-24T07:24:09;27.10;;;13.33;;
21281;SDS011;10800;53.096;18.328;2022-09-24T07:29:16;24.13;;;13.07;;
21281;SDS011;10800;53.096;18.328;2022-09-24T07:34:23;23.17;;;13.07;;
21281;SDS011;10800;53.096;18.328;2022-09-24T07:39:28;22.53;;;13.23;;
21281;SDS011;10800;53.096;18.328;2022-09-24T07:44:35;23.03;;;12.87;;
21281;SDS011;10800;53.096;18.328;2022-09-24T07:49:42;21.80;;;12.17;;
21281;SDS011;10800;53.096;18.328;2022-09-24T07:54:54;20.67;;;11.77;;
21281;SDS011;10800;53.096;18.328;2022-09-24T08:00:04;23.37;;;11.77;;
21281;SDS011;10800;53.096;18.328;2022-09-24T08:05:10;19.87;;;11.73;;
21281;SDS011;10800;53.096;18.328;2022-09-24T08:10:17;23.77;;;12.60;;
21281;SDS011;10800;53.096;18.328;2022-09-24T08:15:23;20.37;;;11.03;;
21281;SDS011;10800;53.096;18.328;2022-09-24T08:20:29;20.93;;;12.40;;
21281;SDS011;10800;53.096;18.328;2022-09-24T08:25:36;19.40;;;11.33;;
21281;SDS011;10800;53.096;18.328;2022-09-24T08:30:42;23.47;;;10.80;;
21281;SDS011;10800;53.096;18.328;2022-09-24T08:35:48;18.20;;;10.10;;
21281;SDS011;10800;53.096;18.328;2022-09-24T08:41:16;20.33;;;10.47;;
21281;SDS011;10800;53.096;18.328;2022-09-24T08:46:35;16.57;;;9.57;;
21281;SDS011;10800;53.096;18.328;2022-09-24T08:52:02;17.90;;;10.03;;
21281;SDS011;10800;53.096;18.328;2022-09-24T08:57:25;14.47;;;8.73;;
21281;SDS011;10800;53.096;18.328;2022-09-24T09:02:42;15.43;;;9.13;;
21281;SDS011;10800;53.096;18.328;2022-09-24T09:08:04;17.43;;;8.63;;
21281;SDS011;10800;53.096;18.328;2022-09-24T09:13:16;19.90;;;10.00;;
21281;SDS011;10800;53.096;18.328;2022-09-24T09:18:35;18.80;;;9.10;;
21281;SDS011;10800;53.096;18.328;2022-09-24T09:23:47;16.93;;;8.80;;
21281;SDS011;10800;53.096;18.328;2022-09-24T09:39:43;17.73;;;8.10;;
21281;SDS011;10800;53.096;18.328;2022-09-24T09:45:01;11.93;;;7.93;;
21281;SDS011;10800;53.096;18.328;2022-09-24T09:50:33;12.87;;;6.93;;
21281;SDS011;10800;53.096;18.328;2022-09-24T09:55:39;9.97;;;6.13;;
21281;SDS011;10800;53.096;18.328;2022-09-24T10:00:45;9.97;;;6.27;;
21281;SDS011;10800;53.096;18.328;2022-09-24T10:06:01;9.10;;;6.07;;
21281;SDS011;10800;53.096;18.328;2022-09-24T10:11:16;11.53;;;6.17;;
21281;SDS011;10800;53.096;18.328;2022-09-24T10:16:28;12.00;;;6.50;;
21281;SDS011;10800;53.096;18.328;2022-09-24T10:21:35;9.77;;;6.30;;
21281;SDS011;10800;53.096;18.328;2022-09-24T10:26:43;10.17;;;6.40;;
21281;SDS011;10800;53.096;18.328;2022-09-24T10:31:50;9.33;;;5.50;;
21281;SDS011;10800;53.096;18.328;2022-09-24T10:37:10;8.53;;;5.60;;
21281;SDS011;10800;53.096;18.328;2022-09-24T10:42:25;12.53;;;5.50;;
21281;SDS011;10800;53.096;18.328;2022-09-24T10:52:50;8.67;;;4.63;;
21281;SDS011;10800;53.096;18.328;2022-09-24T11:03:58;6.37;;;4.30;;
21281;SDS011;10800;53.096;18.328;2022-09-24T11:09:16;6.03;;;3.40;;
21281;SDS011;10800;53.096;18.328;2022-09-24T11:14:36;4.23;;;2.50;;
21281;SDS011;10800;53.096;18.328;2022-09-24T11:19:48;3.63;;;2.40;;
21281;SDS011;10800;53.096;18.328;2022-09-24T11:47:47;3.67;;;2.63;;
21281;SDS011;10800;53.096;18.328;2022-09-24T11:53:11;2.87;;;2.23;;
21281;SDS011;10800;53.096;18.328;2022-09-24T12:03:47;3.13;;;2.37;;
21281;SDS011;10800;53.096;18.328;2022-09-24T12:09:32;4.40;;;2.37;;
21281;SDS011;10800;53.096;18.328;2022-09-24T12:14:56;3.43;;;2.20;;
21281;SDS011;10800;53.096;18.328;2022-09-24T12:21:14;11.13;;;4.00;;
21281;SDS011;10800;53.096;18.328;2022-09-24T12:26:09;17.03;;;6.87;;
21281;SDS011;10800;53.096;18.328;2022-09-24T12:37:37;4.83;;;3.10;;
21281;SDS011;10800;53.096;18.328;2022-09-24T12:43:00;4.70;;;2.33;;
21281;SDS011;10800;53.096;18.328;2022-09-24T12:48:36;3.90;;;2.57;;
21281;SDS011;10800;53.096;18.328;2022-09-24T12:54:37;2.93;;;2.20;;
21281;SDS011;10800;53.096;18.328;2022-09-24T12:59:50;4.47;;;1.90;;
21281;SDS011;10800;53.096;18.328;2022-09-24T13:10:29;6.20;;;4.13;;
21281;SDS011;10800;53.096;18.328;2022-09-24T13:16:04;5.13;;;2.40;;
21281;SDS011;10800;53.096;18.328;2022-09-24T13:26:36;5.37;;;2.90;;
21281;SDS011;10800;53.096;18.328;2022-09-24T13:32:07;4.87;;;2.13;;
21281;SDS011;10800;53.096;18.328;2022-09-24T13:37:25;3.10;;;2.00;;
21281;SDS011;10800;53.096;18.328;2022-09-24T13:42:44;6.80;;;2.00;;
21281;SDS011;10800;53.096;18.328;2022-09-24T13:48:32;3.30;;;1.90;;
21281;SDS011;10800;53.096;18.328;2022-09-24T13:59:17;2.60;;;1.50;;
21281;SDS011;10800;53.096;18.328;2022-09-24T14:04:26;4.13;;;1.73;;
21281;SDS011;10800;53.096;18.328;2022-09-24T14:09:34;4.57;;;2.37;;
21281;SDS011;10800;53.096;18.328;2022-09-24T14:14:51;6.17;;;3.50;;
21281;SDS011;10800;53.096;18.328;2022-09-24T14:20:04;5.13;;;2.43;;
21281;SDS011;10800;53.096;18.328;2022-09-24T14:25:14;5.13;;;2.87;;
21281;SDS011;10800;53.096;18.328;2022-09-24T14:30:27;6.83;;;3.00;;
21281;SDS011;10800;53.096;18.328;2022-09-24T14:35:38;12.20;;;5.10;;
21281;SDS011;10800;53.096;18.328;2022-09-24T14:41:04;4.67;;;2.10;;
21281;SDS011;10800;53.096;18.328;2022-09-24T14:46:14;7.63;;;3.27;;
21281;SDS011;10800;53.096;18.328;2022-09-24T14:51:30;11.23;;;3.20;;
21281;SDS011;10800;53.096;18.328;2022-09-24T14:56:35;8.33;;;4.90;;
21281;SDS011;10800;53.096;18.328;2022-09-24T15:01:48;14.00;;;6.00;;
21281;SDS011;10800;53.096;18.328;2022-09-24T15:06:54;8.03;;;3.93;;
21281;SDS011;10800;53.096;18.328;2022-09-24T15:12:16;8.53;;;4.57;;
21281;SDS011;10800;53.096;18.328;2022-09-24T15:17:49;8.10;;;3.77;;
21281;SDS011;10800;53.096;18.328;2022-09-24T15:23:01;11.73;;;5.17;;
21281;SDS011;10800;53.096;18.328;2022-09-24T15:28:16;6.80;;;4.47;;
21281;SDS011;10800;53.096;18.328;2022-09-24T15:33:28;10.33;;;5.33;;
21281;SDS011;10800;53.096;18.328;2022-09-24T15:38:36;13.10;;;5.20;;
21281;SDS011;10800;53.096;18.328;2022-09-24T15:43:49;7.73;;;4.03;;
21281;SDS011;10800;53.096;18.328;2022-09-24T15:48:59;7.37;;;3.20;;
21281;SDS011;10800;53.096;18.328;2022-09-24T15:54:13;4.93;;;3.03;;
21281;SDS011;10800;53.096;18.328;2022-09-24T15:59:22;14.50;;;6.43;;
21281;SDS011;10800;53.096;18.328;2022-09-24T16:04:27;59.77;;;30.10;;
21281;SDS011;10800;53.096;18.328;2022-09-24T16:09:33;42.10;;;20.93;;
21281;SDS011;10800;53.096;18.328;2022-09-24T16:14:43;18.63;;;10.10;;
21281;SDS011;10800;53.096;18.328;2022-09-24T16:19:52;16.07;;;8.27;;
21281;SDS011;10800;53.096;18.328;2022-09-24T16:24:58;16.37;;;8.53;;
21281;SDS011;10800;53.096;18.328;2022-09-24T16:30:04;8.03;;;5.27;;
21281;SDS011;10800;53.096;18.328;2022-09-24T16:35:12;9.33;;;5.00;;
21281;SDS011;10800;53.096;18.328;2022-09-24T16:40:21;8.90;;;4.30;;
21281;SDS011;10800;53.096;18.328;2022-09-24T16:45:31;6.63;;;4.00;;
21281;SDS011;10800;53.096;18.328;2022-09-24T16:50:37;15.47;;;4.03;;
21281;SDS011;10800;53.096;18.328;2022-09-24T16:55:42;8.63;;;4.63;;
21281;SDS011;10800;53.096;18.328;2022-09-24T17:00:48;16.53;;;7.60;;
21281;SDS011;10800;53.096;18.328;2022-09-24T17:06:06;18.57;;;8.77;;
21281;SDS011;10800;53.096;18.328;2022-09-24T17:11:11;18.70;;;9.57;;
21281;SDS011;10800;53.096;18.328;2022-09-24T17:16:17;23.17;;;11.70;;
21281;SDS011;10800;53.096;18.328;2022-09-24T17:21:23;23.60;;;10.60;;
21281;SDS011;10800;53.096;18.328;2022-09-24T17:26:32;22.07;;;11.60;;
21281;SDS011;10800;53.096;18.328;2022-09-24T17:31:52;28.90;;;12.20;;
21281;SDS011;10800;53.096;18.328;2022-09-24T17:37:00;25.87;;;13.10;;
21281;SDS011;10800;53.096;18.328;2022-09-24T17:42:05;40.63;;;19.67;;
21281;SDS011;10800;53.096;18.328;2022-09-24T17:47:12;48.20;;;21.63;;
21281;SDS011;10800;53.096;18.328;2022-09-24T17:52:17;50.27;;;23.40;;
21281;SDS011;10800;53.096;18.328;2022-09-24T17:57:24;52.73;;;23.73;;
21281;SDS011;10800;53.096;18.328;2022-09-24T18:02:37;45.77;;;21.53;;
21281;SDS011;10800;53.096;18.328;2022-09-24T18:07:52;33.53;;;16.20;;
21281;SDS011;10800;53.096;18.328;2022-09-24T18:12:59;29.73;;;13.40;;
21281;SDS011;10800;53.096;18.328;2022-09-24T18:18:11;33.97;;;15.50;;
21281;SDS011;10800;53.096;18.328;2022-09-24T18:23:30;29.63;;;15.20;;
21281;SDS011;10800;53.096;18.328;2022-09-24T18:28:38;24.43;;;11.60;;
21281;SDS011;10800;53.096;18.328;2022-09-24T18:33:45;17.63;;;8.60;;
21281;SDS011;10800;53.096;18.328;2022-09-24T18:38:52;11.70;;;7.03;;
21281;SDS011;10800;53.096;18.328;2022-09-24T18:43:58;12.53;;;5.57;;
21281;SDS011;10800;53.096;18.328;2022-09-24T18:49:05;14.87;;;6.47;;
21281;SDS011;10800;53.096;18.328;2022-09-24T18:54:11;12.90;;;6.67;;
21281;SDS011;10800;53.096;18.328;2022-09-24T18:59:20;12.03;;;7.43;;
21281;SDS011;10800;53.096;18.328;2022-09-24T19:04:26;12.37;;;7.07;;
21281;SDS011;10800;53.096;18.328;2022-09-24T19:09:34;21.10;;;9.60;;
21281;SDS011;10800;53.096;18.328;2022-09-24T19:14:40;20.20;;;10.60;;
21281;SDS011;10800;53.096;18.328;2022-09-24T19:19:45;29.07;;;13.47;;
21281;SDS011;10800;53.096;18.328;2022-09-24T19:24:52;33.47;;;14.27;;
21281;SDS011;10800;53.096;18.328;2022-09-24T19:35:12;22.93;;;13.00;;
21281;SDS011;10800;53.096;18.328;2022-09-24T19:40:18;26.53;;;13.97;;
21281;SDS011;10800;53.096;18.328;2022-09-24T19:45:23;27.97;;;13.53;;
21281;SDS011;10800;53.096;18.328;2022-09-24T19:50:36;27.07;;;13.00;;
21281;SDS011;10800;53.096;18.328;2022-09-24T19:55:42;23.10;;;12.03;;
21281;SDS011;10800;53.096;18.328;2022-09-24T20:00:47;23.13;;;11.73;;
21281;SDS011;10800;53.096;18.328;2022-09-24T20:05:53;23.23;;;12.60;;
21281;SDS011;10800;53.096;18.328;2022-09-24T20:11:03;23.43;;;12.43;;
21281;SDS011;10800;53.096;18.328;2022-09-24T20:16:11;23.07;;;12.10;;
21281;SDS011;10800;53.096;18.328;2022-09-24T20:21:18;22.93;;;10.93;;
21281;SDS011;10800;53.096;18.328;2022-09-24T20:26:24;17.67;;;9.97;;
21281;SDS011;10800;53.096;18.328;2022-09-24T20:31:49;34.03;;;17.17;;
21281;SDS011;10800;53.096;18.328;2022-09-24T20:37:03;25.80;;;12.83;;
21281;SDS011;10800;53.096;18.328;2022-09-24T20:42:09;24.43;;;12.70;;
21281;SDS011;10800;53.096;18.328;2022-09-24T20:47:14;28.83;;;16.63;;
21281;SDS011;10800;53.096;18.328;2022-09-24T20:52:20;38.13;;;18.33;;
21281;SDS011;10800;53.096;18.328;2022-09-24T20:57:25;31.13;;;17.33;;
21281;SDS011;10800;53.096;18.328;2022-09-24T21:02:31;35.80;;;18.10;;
21281;SDS011;10800;53.096;18.328;2022-09-24T21:07:38;35.77;;;16.87;;
21281;SDS011;10800;53.096;18.328;2022-09-24T21:12:45;29.90;;;14.70;;
21281;SDS011;10800;53.096;18.328;2022-09-24T21:17:52;36.93;;;15.40;;
21281;SDS011;10800;53.096;18.328;2022-09-24T21:22:59;34.83;;;16.53;;
21281;SDS011;10800;53.096;18.328;2022-09-24T21:28:04;32.60;;;16.10;;
21281;SDS011;10800;53.096;18.328;2022-09-24T21:33:11;32.40;;;16.00;;
21281;SDS011;10800;53.096;18.328;2022-09-24T21:38:17;29.83;;;15.10;;
21281;SDS011;10800;53.096;18.328;2022-09-24T21:43:22;36.70;;;18.20;;
21281;SDS011;10800;53.096;18.328;2022-09-24T21:48:30;27.80;;;14.37;;
21281;SDS011;10800;53.096;18.328;2022-09-24T21:53:36;33.60;;;14.03;;
21281;SDS011;10800;53.096;18.328;2022-09-24T21:58:42;24.90;;;13.17;;
21281;SDS011;10800;53.096;18.328;2022-09-24T22:03:49;30.73;;;14.60;;
21281;SDS011;10800;53.096;18.328;2022-09-24T22:09:03;29.33;;;15.53;;
21281;SDS011;10800;53.096;18.328;2022-09-24T22:14:09;35.30;;;17.87;;
21281;SDS011;10800;53.096;18.328;2022-09-24T22:19:15;37.03;;;18.47;;
21281;SDS011;10800;53.096;18.328;2022-09-24T22:24:21;33.97;;;17.10;;
21281;SDS011;10800;53.096;18.328;2022-09-24T22:29:26;39.23;;;17.27;;
21281;SDS011;10800;53.096;18.328;2022-09-24T22:34:33;33.17;;;16.37;;
21281;SDS011;10800;53.096;18.328;2022-09-24T22:39:55;33.57;;;16.63;;
21281;SDS011;10800;53.096;18.328;2022-09-24T22:45:01;29.90;;;15.93;;
21281;SDS011;10800;53.096;18.328;2022-09-24T22:50:06;33.73;;;16.77;;
21281;SDS011;10800;53.096;18.328;2022-09-24T22:55:12;30.17;;;15.00;;
21281;SDS011;10800;53.096;18.328;2022-09-24T23:00:18;32.03;;;15.63;;
21281;SDS011;10800;53.096;18.328;2022-09-24T23:05:24;32.63;;;16.07;;
21281;SDS011;10800;53.096;18.328;2022-09-24T23:10:31;35.50;;;16.83;;
21281;SDS011;10800;53.096;18.328;2022-09-24T23:15:36;31.67;;;16.60;;
21281;SDS011;10800;53.096;18.328;2022-09-24T23:20:41;39.03;;;17.57;;
21281;SDS011;10800;53.096;18.328;2022-09-24T23:25:48;34.93;;;17.43;;
21281;SDS011;10800;53.096;18.328;2022-09-24T23:30:56;35.13;;;17.27;;
21281;SDS011;10800;53.096;18.328;2022-09-24T23:36:04;41.10;;;19.23;;
21281;SDS011;10800;53.096;18.328;2022-09-24T23:41:12;28.43;;;17.57;;
21281;SDS011;10800;53.096;18.328;2022-09-24T23:46:18;37.03;;;18.57;;
21281;SDS011;10800;53.096;18.328;2022-09-24T23:51:24;37.73;;;19.50;;
21281;SDS011;10800;53.096;18.328;2022-09-24T23:56:31;38.03;;;20.33;;
